sensor_id;sensor_type;location;lat;lon;timestamp;P1;durP1;ratioP1;P2;durP2;ratioP2
7193;SDS011;3638;48.820;9.244;2024-01-07T00:00:46;32.70;;;24.97;;
7193;SDS011;3638;48.820;9.244;2024-01-07T00:03:13;32.17;;;23.80;;
7193;SDS011;3638;48.820;9.244;2024-01-07T00:05:41;33.23;;;23.87;;
7193;SDS011;3638;48.820;9.244;2024-01-07T00:08:09;32.27;;;25.03;;
7193;SDS011;3638;48.820;9.244;2024-01-07T00:10:37;37.07;;;24.87;;
7193;SDS011;3638;48.820;9.244;2024-01-07T00:13:05;32.90;;;23.87;;
7193;SDS011;3638;48.820;9.244;2024-01-07T00:15:32;29.93;;;23.20;;
7193;SDS011;3638;48.820;9.244;2024-01-07T00:17:59;30.00;;;22.53;;
7193;SDS011;3638;48.820;9.244;2024-01-07T00:20:27;33.57;;;24.17;;
7193;SDS011;3638;48.820;9.244;2024-01-07T00:22:55;30.37;;;24.07;;
7193;SDS011;3638;48.820;9.244;2024-01-07T00:25:22;28.50;;;22.33;;
7193;SDS011;3638;48.820;9.244;2024-01-07T00:27:51;30.40;;;23.50;;
7193;SDS011;3638;48.820;9.244;2024-01-07T00:30:20;29.63;;;22.30;;
7193;SDS011;3638;48.820;9.244;2024-01-07T00:32:48;27.30;;;22.43;;
7193;SDS011;3638;48.820;9.244;2024-01-07T00:35:16;29.20;;;22.17;;
7193;SDS011;3638;48.820;9.244;2024-01-07T00:37:43;28.87;;;22.33;;
7193;SDS011;3638;48.820;9.244;2024-01-07T00:40:11;28.97;;;21.17;;
7193;SDS011;3638;48.820;9.244;2024-01-07T00:42:39;27.10;;;21.27;;
7193;SDS011;3638;48.820;9.244;2024-01-07T00:45:08;28.33;;;21.80;;
7193;SDS011;3638;48.820;9.244;2024-01-07T00:47:36;27.70;;;21.33;;
7193;SDS011;3638;48.820;9.244;2024-01-07T00:50:03;26.50;;;20.40;;
7193;SDS011;3638;48.820;9.244;2024-01-07T00:52:31;29.43;;;20.83;;
7193;SDS011;3638;48.820;9.244;2024-01-07T00:54:59;30.87;;;21.93;;
7193;SDS011;3638;48.820;9.244;2024-01-07T00:57:28;24.50;;;20.03;;
7193;SDS011;3638;48.820;9.244;2024-01-07T00:59:55;23.93;;;19.13;;
7193;SDS011;3638;48.820;9.244;2024-01-07T01:02:24;24.37;;;20.13;;
7193;SDS011;3638;48.820;9.244;2024-01-07T01:04:52;24.60;;;19.30;;
7193;SDS011;3638;48.820;9.244;2024-01-07T01:07:19;23.40;;;19.60;;
7193;SDS011;3638;48.820;9.244;2024-01-07T01:09:46;23.07;;;18.47;;
7193;SDS011;3638;48.820;9.244;2024-01-07T01:12:14;22.10;;;18.43;;
7193;SDS011;3638;48.820;9.244;2024-01-07T01:14:41;23.73;;;18.97;;
7193;SDS011;3638;48.820;9.244;2024-01-07T01:17:09;22.97;;;18.23;;
7193;SDS011;3638;48.820;9.244;2024-01-07T01:19:37;23.33;;;18.23;;
7193;SDS011;3638;48.820;9.244;2024-01-07T01:22:05;26.83;;;20.00;;
7193;SDS011;3638;48.820;9.244;2024-01-07T01:24:32;22.67;;;18.17;;
7193;SDS011;3638;48.820;9.244;2024-01-07T01:27:00;23.80;;;19.27;;
7193;SDS011;3638;48.820;9.244;2024-01-07T01:29:27;24.00;;;18.77;;
7193;SDS011;3638;48.820;9.244;2024-01-07T01:31:55;25.33;;;19.63;;
7193;SDS011;3638;48.820;9.244;2024-01-07T01:34:22;23.43;;;19.33;;
7193;SDS011;3638;48.820;9.244;2024-01-07T01:36:51;24.40;;;19.40;;
7193;SDS011;3638;48.820;9.244;2024-01-07T01:39:19;26.83;;;20.70;;
7193;SDS011;3638;48.820;9.244;2024-01-07T01:41:46;26.17;;;20.10;;
7193;SDS011;3638;48.820;9.244;2024-01-07T01:44:14;24.77;;;19.57;;
7193;SDS011;3638;48.820;9.244;2024-01-07T01:46:41;26.27;;;19.77;;
7193;SDS011;3638;48.820;9.244;2024-01-07T01:49:08;26.17;;;20.67;;
7193;SDS011;3638;48.820;9.244;2024-01-07T01:51:36;28.10;;;20.67;;
7193;SDS011;3638;48.820;9.244;2024-01-07T01:54:05;27.40;;;20.60;;
7193;SDS011;3638;48.820;9.244;2024-01-07T01:56:32;30.80;;;22.93;;
7193;SDS011;3638;48.820;9.244;2024-01-07T01:59:00;30.87;;;22.83;;
7193;SDS011;3638;48.820;9.244;2024-01-07T02:01:27;29.47;;;21.77;;
7193;SDS011;3638;48.820;9.244;2024-01-07T02:03:56;27.90;;;21.40;;
7193;SDS011;3638;48.820;9.244;2024-01-07T02:06:23;39.60;;;29.67;;
7193;SDS011;3638;48.820;9.244;2024-01-07T02:08:51;33.30;;;26.47;;
7193;SDS011;3638;48.820;9.244;2024-01-07T02:11:21;33.83;;;23.47;;
7193;SDS011;3638;48.820;9.244;2024-01-07T02:13:49;29.43;;;22.57;;
7193;SDS011;3638;48.820;9.244;2024-01-07T02:16:16;30.83;;;22.97;;
7193;SDS011;3638;48.820;9.244;2024-01-07T02:18:44;31.10;;;23.17;;
7193;SDS011;3638;48.820;9.244;2024-01-07T02:21:13;31.40;;;22.33;;
7193;SDS011;3638;48.820;9.244;2024-01-07T02:23:41;33.70;;;24.87;;
7193;SDS011;3638;48.820;9.244;2024-01-07T02:26:10;31.23;;;24.40;;
7193;SDS011;3638;48.820;9.244;2024-01-07T02:28:37;32.90;;;24.20;;
7193;SDS011;3638;48.820;9.244;2024-01-07T02:31:05;32.00;;;24.50;;
7193;SDS011;3638;48.820;9.244;2024-01-07T02:33:32;34.13;;;25.23;;
7193;SDS011;3638;48.820;9.244;2024-01-07T02:36:00;32.17;;;24.40;;
7193;SDS011;3638;48.820;9.244;2024-01-07T02:38:27;34.40;;;24.83;;
7193;SDS011;3638;48.820;9.244;2024-01-07T02:40:55;33.60;;;25.57;;
7193;SDS011;3638;48.820;9.244;2024-01-07T02:43:23;33.27;;;25.70;;
7193;SDS011;3638;48.820;9.244;2024-01-07T02:45:51;35.03;;;25.50;;
7193;SDS011;3638;48.820;9.244;2024-01-07T02:48:18;33.60;;;25.20;;
7193;SDS011;3638;48.820;9.244;2024-01-07T02:50:46;31.10;;;24.90;;
7193;SDS011;3638;48.820;9.244;2024-01-07T02:53:13;31.67;;;24.60;;
7193;SDS011;3638;48.820;9.244;2024-01-07T02:55:41;33.73;;;24.47;;
7193;SDS011;3638;48.820;9.244;2024-01-07T02:58:08;31.07;;;24.07;;
7193;SDS011;3638;48.820;9.244;2024-01-07T03:00:37;33.57;;;25.07;;
7193;SDS011;3638;48.820;9.244;2024-01-07T03:03:04;36.37;;;25.23;;
7193;SDS011;3638;48.820;9.244;2024-01-07T03:05:32;33.27;;;24.57;;
7193;SDS011;3638;48.820;9.244;2024-01-07T03:07:59;34.43;;;24.77;;
7193;SDS011;3638;48.820;9.244;2024-01-07T03:10:27;35.43;;;25.37;;
7193;SDS011;3638;48.820;9.244;2024-01-07T03:12:54;33.93;;;24.97;;
7193;SDS011;3638;48.820;9.244;2024-01-07T03:15:22;37.30;;;24.90;;
7193;SDS011;3638;48.820;9.244;2024-01-07T03:17:51;36.37;;;24.87;;
7193;SDS011;3638;48.820;9.244;2024-01-07T03:20:18;34.57;;;24.13;;
7193;SDS011;3638;48.820;9.244;2024-01-07T03:22:46;31.40;;;25.17;;
7193;SDS011;3638;48.820;9.244;2024-01-07T03:25:13;32.47;;;24.60;;
7193;SDS011;3638;48.820;9.244;2024-01-07T03:27:41;31.63;;;25.17;;
7193;SDS011;3638;48.820;9.244;2024-01-07T03:30:09;31.57;;;24.27;;
7193;SDS011;3638;48.820;9.244;2024-01-07T03:32:37;34.57;;;25.37;;
7193;SDS011;3638;48.820;9.244;2024-01-07T03:35:06;33.87;;;25.13;;
7193;SDS011;3638;48.820;9.244;2024-01-07T03:37:34;34.20;;;24.10;;
7193;SDS011;3638;48.820;9.244;2024-01-07T03:40:02;31.07;;;24.07;;
7193;SDS011;3638;48.820;9.244;2024-01-07T03:42:30;29.40;;;24.80;;
7193;SDS011;3638;48.820;9.244;2024-01-07T03:44:57;28.30;;;23.83;;
7193;SDS011;3638;48.820;9.244;2024-01-07T03:47:25;28.67;;;23.10;;
7193;SDS011;3638;48.820;9.244;2024-01-07T03:49:52;30.77;;;23.57;;
7193;SDS011;3638;48.820;9.244;2024-01-07T03:52:21;30.60;;;23.97;;
7193;SDS011;3638;48.820;9.244;2024-01-07T03:54:48;30.60;;;23.47;;
7193;SDS011;3638;48.820;9.244;2024-01-07T03:57:16;30.27;;;23.83;;
7193;SDS011;3638;48.820;9.244;2024-01-07T03:59:43;29.57;;;23.23;;
7193;SDS011;3638;48.820;9.244;2024-01-07T04:02:11;28.93;;;23.57;;
7193;SDS011;3638;48.820;9.244;2024-01-07T04:04:41;29.63;;;22.73;;
7193;SDS011;3638;48.820;9.244;2024-01-07T04:07:08;31.17;;;23.63;;
7193;SDS011;3638;48.820;9.244;2024-01-07T04:09:37;31.10;;;23.17;;
7193;SDS011;3638;48.820;9.244;2024-01-07T04:12:05;28.93;;;23.13;;
7193;SDS011;3638;48.820;9.244;2024-01-07T04:14:33;32.07;;;23.10;;
7193;SDS011;3638;48.820;9.244;2024-01-07T04:17:00;30.83;;;23.67;;
7193;SDS011;3638;48.820;9.244;2024-01-07T04:19:28;32.30;;;24.23;;
7193;SDS011;3638;48.820;9.244;2024-01-07T04:21:55;30.50;;;22.83;;
7193;SDS011;3638;48.820;9.244;2024-01-07T04:24:23;31.70;;;23.67;;
7193;SDS011;3638;48.820;9.244;2024-01-07T04:26:51;30.13;;;23.27;;
7193;SDS011;3638;48.820;9.244;2024-01-07T04:29:19;35.37;;;23.73;;
7193;SDS011;3638;48.820;9.244;2024-01-07T04:31:46;29.03;;;22.90;;
7193;SDS011;3638;48.820;9.244;2024-01-07T04:34:14;32.10;;;24.13;;
7193;SDS011;3638;48.820;9.244;2024-01-07T04:36:41;30.30;;;22.63;;
7193;SDS011;3638;48.820;9.244;2024-01-07T04:39:08;30.23;;;22.30;;
7193;SDS011;3638;48.820;9.244;2024-01-07T04:41:36;30.17;;;22.63;;
7193;SDS011;3638;48.820;9.244;2024-01-07T04:44:05;30.67;;;21.27;;
7193;SDS011;3638;48.820;9.244;2024-01-07T04:46:33;30.63;;;21.73;;
7193;SDS011;3638;48.820;9.244;2024-01-07T04:49:01;26.93;;;20.83;;
7193;SDS011;3638;48.820;9.244;2024-01-07T04:51:28;27.53;;;20.80;;
7193;SDS011;3638;48.820;9.244;2024-01-07T04:53:56;27.30;;;20.73;;
7193;SDS011;3638;48.820;9.244;2024-01-07T04:56:23;27.10;;;20.63;;
7193;SDS011;3638;48.820;9.244;2024-01-07T04:58:50;28.73;;;21.37;;
7193;SDS011;3638;48.820;9.244;2024-01-07T05:01:19;26.83;;;20.87;;
7193;SDS011;3638;48.820;9.244;2024-01-07T05:03:47;29.70;;;21.20;;
7193;SDS011;3638;48.820;9.244;2024-01-07T05:06:15;28.37;;;20.10;;
7193;SDS011;3638;48.820;9.244;2024-01-07T05:08:42;28.67;;;18.83;;
7193;SDS011;3638;48.820;9.244;2024-01-07T05:11:10;25.37;;;18.73;;
7193;SDS011;3638;48.820;9.244;2024-01-07T05:13:37;26.77;;;17.77;;
7193;SDS011;3638;48.820;9.244;2024-01-07T05:16:05;25.93;;;18.57;;
7193;SDS011;3638;48.820;9.244;2024-01-07T05:18:34;22.53;;;17.57;;
7193;SDS011;3638;48.820;9.244;2024-01-07T05:21:01;23.47;;;17.30;;
7193;SDS011;3638;48.820;9.244;2024-01-07T05:23:28;24.80;;;17.63;;
7193;SDS011;3638;48.820;9.244;2024-01-07T05:25:56;23.23;;;17.77;;
7193;SDS011;3638;48.820;9.244;2024-01-07T05:28:26;23.10;;;17.93;;
7193;SDS011;3638;48.820;9.244;2024-01-07T05:30:54;23.80;;;17.93;;
7193;SDS011;3638;48.820;9.244;2024-01-07T05:33:21;22.93;;;17.60;;
7193;SDS011;3638;48.820;9.244;2024-01-07T05:35:50;25.03;;;18.37;;
7193;SDS011;3638;48.820;9.244;2024-01-07T05:38:17;23.40;;;17.97;;
7193;SDS011;3638;48.820;9.244;2024-01-07T05:40:45;24.90;;;18.30;;
7193;SDS011;3638;48.820;9.244;2024-01-07T05:43:12;22.43;;;17.60;;
7193;SDS011;3638;48.820;9.244;2024-01-07T05:45:39;25.57;;;18.80;;
7193;SDS011;3638;48.820;9.244;2024-01-07T05:48:07;22.67;;;17.50;;
7193;SDS011;3638;48.820;9.244;2024-01-07T05:50:34;25.70;;;17.90;;
7193;SDS011;3638;48.820;9.244;2024-01-07T05:53:03;22.40;;;16.97;;
7193;SDS011;3638;48.820;9.244;2024-01-07T05:55:31;21.57;;;16.47;;
7193;SDS011;3638;48.820;9.244;2024-01-07T05:57:58;23.10;;;17.03;;
7193;SDS011;3638;48.820;9.244;2024-01-07T06:00:25;21.63;;;16.83;;
7193;SDS011;3638;48.820;9.244;2024-01-07T06:02:53;22.10;;;16.73;;
7193;SDS011;3638;48.820;9.244;2024-01-07T06:05:20;21.07;;;16.20;;
7193;SDS011;3638;48.820;9.244;2024-01-07T06:07:47;21.03;;;16.47;;
7193;SDS011;3638;48.820;9.244;2024-01-07T06:10:16;23.23;;;17.93;;
7193;SDS011;3638;48.820;9.244;2024-01-07T06:12:44;23.87;;;17.73;;
7193;SDS011;3638;48.820;9.244;2024-01-07T06:15:11;20.93;;;17.03;;
7193;SDS011;3638;48.820;9.244;2024-01-07T06:17:41;20.43;;;16.73;;
7193;SDS011;3638;48.820;9.244;2024-01-07T06:20:11;18.33;;;15.87;;
7193;SDS011;3638;48.820;9.244;2024-01-07T06:22:38;21.53;;;17.73;;
7193;SDS011;3638;48.820;9.244;2024-01-07T06:25:06;22.30;;;17.67;;
7193;SDS011;3638;48.820;9.244;2024-01-07T06:27:37;21.07;;;16.33;;
7193;SDS011;3638;48.820;9.244;2024-01-07T06:30:05;21.23;;;16.93;;
7193;SDS011;3638;48.820;9.244;2024-01-07T06:32:33;21.23;;;16.37;;
7193;SDS011;3638;48.820;9.244;2024-01-07T06:35:01;21.13;;;16.37;;
7193;SDS011;3638;48.820;9.244;2024-01-07T06:37:29;21.17;;;16.83;;
7193;SDS011;3638;48.820;9.244;2024-01-07T06:39:57;19.17;;;16.23;;
7193;SDS011;3638;48.820;9.244;2024-01-07T06:42:24;21.27;;;17.30;;
7193;SDS011;3638;48.820;9.244;2024-01-07T06:44:53;20.73;;;16.03;;
7193;SDS011;3638;48.820;9.244;2024-01-07T06:47:20;20.50;;;15.97;;
7193;SDS011;3638;48.820;9.244;2024-01-07T06:49:48;19.00;;;16.17;;
7193;SDS011;3638;48.820;9.244;2024-01-07T06:52:15;19.70;;;16.13;;
7193;SDS011;3638;48.820;9.244;2024-01-07T06:54:44;21.10;;;16.87;;
7193;SDS011;3638;48.820;9.244;2024-01-07T06:57:11;20.00;;;17.20;;
7193;SDS011;3638;48.820;9.244;2024-01-07T06:59:39;17.27;;;15.47;;
7193;SDS011;3638;48.820;9.244;2024-01-07T07:02:07;17.83;;;15.20;;
7193;SDS011;3638;48.820;9.244;2024-01-07T07:04:35;17.00;;;15.20;;
7193;SDS011;3638;48.820;9.244;2024-01-07T07:07:03;16.47;;;14.70;;
7193;SDS011;3638;48.820;9.244;2024-01-07T07:09:30;16.47;;;14.67;;
7193;SDS011;3638;48.820;9.244;2024-01-07T07:11:58;16.50;;;13.50;;
7193;SDS011;3638;48.820;9.244;2024-01-07T07:14:25;16.67;;;13.90;;
7193;SDS011;3638;48.820;9.244;2024-01-07T07:16:53;15.73;;;13.97;;
7193;SDS011;3638;48.820;9.244;2024-01-07T07:19:22;16.03;;;14.33;;
7193;SDS011;3638;48.820;9.244;2024-01-07T07:21:49;14.27;;;12.77;;
7193;SDS011;3638;48.820;9.244;2024-01-07T07:24:16;14.87;;;13.33;;
7193;SDS011;3638;48.820;9.244;2024-01-07T07:26:44;15.90;;;13.37;;
7193;SDS011;3638;48.820;9.244;2024-01-07T07:29:11;21.43;;;16.00;;
7193;SDS011;3638;48.820;9.244;2024-01-07T07:31:38;15.13;;;13.50;;
7193;SDS011;3638;48.820;9.244;2024-01-07T07:34:08;14.37;;;12.87;;
7193;SDS011;3638;48.820;9.244;2024-01-07T07:36:38;15.20;;;13.53;;
7193;SDS011;3638;48.820;9.244;2024-01-07T07:39:06;14.30;;;12.83;;
7193;SDS011;3638;48.820;9.244;2024-01-07T07:41:34;14.97;;;13.13;;
7193;SDS011;3638;48.820;9.244;2024-01-07T07:44:02;14.73;;;12.60;;
7193;SDS011;3638;48.820;9.244;2024-01-07T07:46:30;13.97;;;12.37;;
7193;SDS011;3638;48.820;9.244;2024-01-07T07:48:57;14.23;;;12.50;;
7193;SDS011;3638;48.820;9.244;2024-01-07T07:51:26;14.40;;;12.77;;
7193;SDS011;3638;48.820;9.244;2024-01-07T07:53:54;13.20;;;11.70;;
7193;SDS011;3638;48.820;9.244;2024-01-07T07:56:22;13.17;;;11.37;;
7193;SDS011;3638;48.820;9.244;2024-01-07T07:58:49;13.40;;;11.53;;
7193;SDS011;3638;48.820;9.244;2024-01-07T08:01:17;14.03;;;12.63;;
7193;SDS011;3638;48.820;9.244;2024-01-07T08:03:45;13.23;;;11.80;;
7193;SDS011;3638;48.820;9.244;2024-01-07T08:06:13;12.83;;;11.53;;
7193;SDS011;3638;48.820;9.244;2024-01-07T08:08:39;13.03;;;11.30;;
7193;SDS011;3638;48.820;9.244;2024-01-07T08:11:08;12.13;;;10.93;;
7193;SDS011;3638;48.820;9.244;2024-01-07T08:13:35;12.80;;;10.40;;
7193;SDS011;3638;48.820;9.244;2024-01-07T08:16:03;11.37;;;10.27;;
7193;SDS011;3638;48.820;9.244;2024-01-07T08:18:31;11.53;;;10.33;;
7193;SDS011;3638;48.820;9.244;2024-01-07T08:20:59;11.80;;;10.10;;
7193;SDS011;3638;48.820;9.244;2024-01-07T08:23:27;12.27;;;10.33;;
7193;SDS011;3638;48.820;9.244;2024-01-07T08:25:55;11.80;;;10.07;;
7193;SDS011;3638;48.820;9.244;2024-01-07T08:28:24;11.80;;;10.57;;
7193;SDS011;3638;48.820;9.244;2024-01-07T08:30:52;13.37;;;10.57;;
7193;SDS011;3638;48.820;9.244;2024-01-07T08:33:21;10.83;;;9.50;;
7193;SDS011;3638;48.820;9.244;2024-01-07T08:35:48;10.80;;;9.70;;
7193;SDS011;3638;48.820;9.244;2024-01-07T08:38:16;12.00;;;10.70;;
7193;SDS011;3638;48.820;9.244;2024-01-07T08:40:43;12.13;;;10.10;;
7193;SDS011;3638;48.820;9.244;2024-01-07T08:43:10;13.93;;;10.23;;
7193;SDS011;3638;48.820;9.244;2024-01-07T08:45:40;11.93;;;10.33;;
7193;SDS011;3638;48.820;9.244;2024-01-07T08:48:08;10.87;;;9.77;;
7193;SDS011;3638;48.820;9.244;2024-01-07T08:50:37;11.33;;;10.10;;
7193;SDS011;3638;48.820;9.244;2024-01-07T08:53:04;13.07;;;9.57;;
7193;SDS011;3638;48.820;9.244;2024-01-07T08:55:32;10.20;;;9.17;;
7193;SDS011;3638;48.820;9.244;2024-01-07T08:57:59;11.70;;;9.27;;
7193;SDS011;3638;48.820;9.244;2024-01-07T09:00:27;10.03;;;8.90;;
7193;SDS011;3638;48.820;9.244;2024-01-07T09:02:57;9.50;;;8.43;;
7193;SDS011;3638;48.820;9.244;2024-01-07T09:05:25;8.40;;;7.60;;
7193;SDS011;3638;48.820;9.244;2024-01-07T09:07:52;8.87;;;7.97;;
7193;SDS011;3638;48.820;9.244;2024-01-07T09:10:20;8.93;;;7.90;;
7193;SDS011;3638;48.820;9.244;2024-01-07T09:12:47;8.23;;;7.43;;
7193;SDS011;3638;48.820;9.244;2024-01-07T09:15:15;7.60;;;6.77;;
7193;SDS011;3638;48.820;9.244;2024-01-07T09:17:45;7.90;;;7.20;;
7193;SDS011;3638;48.820;9.244;2024-01-07T09:20:14;8.03;;;6.80;;
7193;SDS011;3638;48.820;9.244;2024-01-07T09:22:42;6.70;;;6.10;;
7193;SDS011;3638;48.820;9.244;2024-01-07T09:25:09;6.80;;;6.10;;
7193;SDS011;3638;48.820;9.244;2024-01-07T09:27:37;6.60;;;6.00;;
7193;SDS011;3638;48.820;9.244;2024-01-07T09:30:05;7.40;;;6.70;;
7193;SDS011;3638;48.820;9.244;2024-01-07T09:32:35;7.30;;;6.60;;
7193;SDS011;3638;48.820;9.244;2024-01-07T09:35:04;7.00;;;6.40;;
7193;SDS011;3638;48.820;9.244;2024-01-07T09:37:33;7.67;;;6.87;;
7193;SDS011;3638;48.820;9.244;2024-01-07T09:40:02;7.43;;;6.67;;
7193;SDS011;3638;48.820;9.244;2024-01-07T09:42:31;6.90;;;6.20;;
7193;SDS011;3638;48.820;9.244;2024-01-07T09:44:59;9.00;;;7.00;;
7193;SDS011;3638;48.820;9.244;2024-01-07T09:47:28;7.13;;;6.40;;
7193;SDS011;3638;48.820;9.244;2024-01-07T09:49:56;7.13;;;6.53;;
7193;SDS011;3638;48.820;9.244;2024-01-07T09:52:24;7.27;;;6.57;;
7193;SDS011;3638;48.820;9.244;2024-01-07T09:54:53;7.03;;;6.40;;
7193;SDS011;3638;48.820;9.244;2024-01-07T09:57:24;6.80;;;6.20;;
7193;SDS011;3638;48.820;9.244;2024-01-07T09:59:52;7.50;;;6.80;;
7193;SDS011;3638;48.820;9.244;2024-01-07T10:02:19;7.67;;;6.80;;
7193;SDS011;3638;48.820;9.244;2024-01-07T10:04:48;8.07;;;7.17;;
7193;SDS011;3638;48.820;9.244;2024-01-07T10:07:16;7.77;;;7.07;;
7193;SDS011;3638;48.820;9.244;2024-01-07T10:09:43;7.43;;;6.63;;
7193;SDS011;3638;48.820;9.244;2024-01-07T10:12:12;7.93;;;7.13;;
7193;SDS011;3638;48.820;9.244;2024-01-07T10:14:43;7.70;;;7.00;;
7193;SDS011;3638;48.820;9.244;2024-01-07T10:17:16;7.07;;;6.47;;
7193;SDS011;3638;48.820;9.244;2024-01-07T10:19:44;7.03;;;6.33;;
7193;SDS011;3638;48.820;9.244;2024-01-07T10:22:12;7.33;;;6.63;;
7193;SDS011;3638;48.820;9.244;2024-01-07T10:24:41;8.30;;;7.50;;
7193;SDS011;3638;48.820;9.244;2024-01-07T10:27:09;7.70;;;7.00;;
7193;SDS011;3638;48.820;9.244;2024-01-07T10:29:39;8.57;;;7.70;;
7193;SDS011;3638;48.820;9.244;2024-01-07T10:32:07;9.00;;;8.10;;
7193;SDS011;3638;48.820;9.244;2024-01-07T10:34:37;8.73;;;7.83;;
7193;SDS011;3638;48.820;9.244;2024-01-07T10:37:06;9.10;;;8.20;;
7193;SDS011;3638;48.820;9.244;2024-01-07T10:39:35;9.70;;;8.70;;
7193;SDS011;3638;48.820;9.244;2024-01-07T10:42:04;8.47;;;7.67;;
7193;SDS011;3638;48.820;9.244;2024-01-07T10:44:32;8.50;;;7.70;;
7193;SDS011;3638;48.820;9.244;2024-01-07T10:47:06;9.13;;;8.13;;
7193;SDS011;3638;48.820;9.244;2024-01-07T10:49:34;8.90;;;8.07;;
7193;SDS011;3638;48.820;9.244;2024-01-07T10:52:03;8.90;;;8.00;;
7193;SDS011;3638;48.820;9.244;2024-01-07T10:54:32;8.77;;;7.90;;
7193;SDS011;3638;48.820;9.244;2024-01-07T10:57:04;8.90;;;8.00;;
7193;SDS011;3638;48.820;9.244;2024-01-07T10:59:40;8.97;;;8.07;;
7193;SDS011;3638;48.820;9.244;2024-01-07T11:02:09;8.80;;;7.90;;
7193;SDS011;3638;48.820;9.244;2024-01-07T11:04:41;9.63;;;8.70;;
7193;SDS011;3638;48.820;9.244;2024-01-07T11:07:15;8.43;;;7.63;;
7193;SDS011;3638;48.820;9.244;2024-01-07T11:09:49;8.13;;;7.33;;
7193;SDS011;3638;48.820;9.244;2024-01-07T11:12:20;9.33;;;8.07;;
7193;SDS011;3638;48.820;9.244;2024-01-07T11:14:47;9.27;;;8.37;;
7193;SDS011;3638;48.820;9.244;2024-01-07T11:17:39;9.97;;;9.00;;
7193;SDS011;3638;48.820;9.244;2024-01-07T11:20:21;8.70;;;7.80;;
7193;SDS011;3638;48.820;9.244;2024-01-07T11:22:51;9.07;;;8.13;;
7193;SDS011;3638;48.820;9.244;2024-01-07T11:25:28;8.30;;;7.60;;
7193;SDS011;3638;48.820;9.244;2024-01-07T11:27:57;7.73;;;7.03;;
7193;SDS011;3638;48.820;9.244;2024-01-07T11:30:24;8.07;;;7.30;;
7193;SDS011;3638;48.820;9.244;2024-01-07T11:32:57;7.60;;;6.97;;
7193;SDS011;3638;48.820;9.244;2024-01-07T11:38:23;7.70;;;7.00;;
7193;SDS011;3638;48.820;9.244;2024-01-07T11:40:51;8.27;;;7.47;;
7193;SDS011;3638;48.820;9.244;2024-01-07T11:43:19;8.63;;;7.73;;
7193;SDS011;3638;48.820;9.244;2024-01-07T11:45:46;8.23;;;7.50;;
7193;SDS011;3638;48.820;9.244;2024-01-07T11:48:18;8.97;;;8.10;;
7193;SDS011;3638;48.820;9.244;2024-01-07T11:50:45;9.93;;;8.90;;
7193;SDS011;3638;48.820;9.244;2024-01-07T11:53:13;8.93;;;8.00;;
7193;SDS011;3638;48.820;9.244;2024-01-07T11:55:40;9.47;;;8.57;;
7193;SDS011;3638;48.820;9.244;2024-01-07T11:58:08;9.50;;;8.60;;
7193;SDS011;3638;48.820;9.244;2024-01-07T12:00:36;9.60;;;8.70;;
7193;SDS011;3638;48.820;9.244;2024-01-07T12:03:06;9.77;;;8.77;;
7193;SDS011;3638;48.820;9.244;2024-01-07T12:05:35;9.03;;;8.23;;
7193;SDS011;3638;48.820;9.244;2024-01-07T12:08:02;9.83;;;8.83;;
7193;SDS011;3638;48.820;9.244;2024-01-07T12:10:31;9.50;;;8.60;;
7193;SDS011;3638;48.820;9.244;2024-01-07T12:12:58;10.17;;;9.17;;
7193;SDS011;3638;48.820;9.244;2024-01-07T12:15:26;10.20;;;9.20;;
7193;SDS011;3638;48.820;9.244;2024-01-07T12:17:55;9.70;;;8.80;;
7193;SDS011;3638;48.820;9.244;2024-01-07T12:20:23;9.70;;;8.70;;
7193;SDS011;3638;48.820;9.244;2024-01-07T12:22:54;9.80;;;8.90;;
7193;SDS011;3638;48.820;9.244;2024-01-07T12:25:24;10.03;;;8.57;;
7193;SDS011;3638;48.820;9.244;2024-01-07T12:27:51;10.47;;;9.47;;
7193;SDS011;3638;48.820;9.244;2024-01-07T12:30:19;10.13;;;9.20;;
7193;SDS011;3638;48.820;9.244;2024-01-07T12:32:47;9.97;;;9.07;;
7193;SDS011;3638;48.820;9.244;2024-01-07T12:35:17;10.70;;;9.60;;
7193;SDS011;3638;48.820;9.244;2024-01-07T12:37:45;11.40;;;10.20;;
7193;SDS011;3638;48.820;9.244;2024-01-07T12:40:15;10.73;;;9.70;;
7193;SDS011;3638;48.820;9.244;2024-01-07T12:42:42;10.50;;;9.50;;
7193;SDS011;3638;48.820;9.244;2024-01-07T12:45:11;11.40;;;10.27;;
7193;SDS011;3638;48.820;9.244;2024-01-07T12:47:40;11.90;;;10.63;;
7193;SDS011;3638;48.820;9.244;2024-01-07T12:50:08;11.70;;;10.53;;
7193;SDS011;3638;48.820;9.244;2024-01-07T12:52:36;12.10;;;10.90;;
7193;SDS011;3638;48.820;9.244;2024-01-07T12:55:04;10.63;;;9.60;;
7193;SDS011;3638;48.820;9.244;2024-01-07T12:57:34;11.43;;;10.23;;
7193;SDS011;3638;48.820;9.244;2024-01-07T13:00:01;11.70;;;10.50;;
7193;SDS011;3638;48.820;9.244;2024-01-07T13:02:31;11.90;;;10.17;;
7193;SDS011;3638;48.820;9.244;2024-01-07T13:04:59;11.07;;;9.90;;
7193;SDS011;3638;48.820;9.244;2024-01-07T13:07:28;11.97;;;10.77;;
7193;SDS011;3638;48.820;9.244;2024-01-07T13:09:55;11.47;;;10.37;;
7193;SDS011;3638;48.820;9.244;2024-01-07T13:12:22;11.37;;;10.27;;
7193;SDS011;3638;48.820;9.244;2024-01-07T13:14:51;10.47;;;9.47;;
7193;SDS011;3638;48.820;9.244;2024-01-07T13:17:19;11.40;;;10.20;;
7193;SDS011;3638;48.820;9.244;2024-01-07T13:19:46;11.70;;;9.60;;
7193;SDS011;3638;48.820;9.244;2024-01-07T13:22:13;12.77;;;10.77;;
7193;SDS011;3638;48.820;9.244;2024-01-07T13:24:41;11.60;;;10.40;;
7193;SDS011;3638;48.820;9.244;2024-01-07T13:27:08;12.00;;;10.53;;
7193;SDS011;3638;48.820;9.244;2024-01-07T13:29:36;12.30;;;10.90;;
7193;SDS011;3638;48.820;9.244;2024-01-07T13:32:05;11.20;;;10.03;;
7193;SDS011;3638;48.820;9.244;2024-01-07T13:34:32;12.33;;;10.43;;
7193;SDS011;3638;48.820;9.244;2024-01-07T13:37:00;11.67;;;10.50;;
7193;SDS011;3638;48.820;9.244;2024-01-07T13:39:28;12.00;;;10.77;;
7193;SDS011;3638;48.820;9.244;2024-01-07T13:41:56;12.43;;;11.13;;
7193;SDS011;3638;48.820;9.244;2024-01-07T13:44:23;11.40;;;10.20;;
7193;SDS011;3638;48.820;9.244;2024-01-07T13:46:50;12.00;;;10.80;;
7193;SDS011;3638;48.820;9.244;2024-01-07T13:49:20;12.00;;;10.80;;
7193;SDS011;3638;48.820;9.244;2024-01-07T13:51:47;12.30;;;11.10;;
7193;SDS011;3638;48.820;9.244;2024-01-07T13:54:14;12.77;;;11.47;;
7193;SDS011;3638;48.820;9.244;2024-01-07T13:56:42;13.27;;;11.87;;
7193;SDS011;3638;48.820;9.244;2024-01-07T13:59:10;13.00;;;11.37;;
7193;SDS011;3638;48.820;9.244;2024-01-07T14:01:37;13.13;;;11.50;;
7193;SDS011;3638;48.820;9.244;2024-01-07T14:04:07;12.30;;;11.20;;
7193;SDS011;3638;48.820;9.244;2024-01-07T14:06:36;13.77;;;12.27;;
7193;SDS011;3638;48.820;9.244;2024-01-07T14:09:03;14.10;;;12.57;;
7193;SDS011;3638;48.820;9.244;2024-01-07T14:11:33;13.83;;;12.43;;
7193;SDS011;3638;48.820;9.244;2024-01-07T14:14:01;14.03;;;12.50;;
7193;SDS011;3638;48.820;9.244;2024-01-07T14:16:28;14.53;;;13.00;;
7193;SDS011;3638;48.820;9.244;2024-01-07T14:18:55;14.63;;;13.13;;
7193;SDS011;3638;48.820;9.244;2024-01-07T14:21:23;15.90;;;14.07;;
7193;SDS011;3638;48.820;9.244;2024-01-07T14:23:52;14.20;;;12.80;;
7193;SDS011;3638;48.820;9.244;2024-01-07T14:26:19;14.73;;;13.23;;
7193;SDS011;3638;48.820;9.244;2024-01-07T14:28:48;15.97;;;14.17;;
7193;SDS011;3638;48.820;9.244;2024-01-07T14:31:16;15.77;;;13.53;;
7193;SDS011;3638;48.820;9.244;2024-01-07T14:33:43;15.77;;;13.67;;
7193;SDS011;3638;48.820;9.244;2024-01-07T14:36:12;15.03;;;13.40;;
7193;SDS011;3638;48.820;9.244;2024-01-07T14:38:43;14.73;;;13.23;;
7193;SDS011;3638;48.820;9.244;2024-01-07T14:41:12;14.40;;;13.00;;
7193;SDS011;3638;48.820;9.244;2024-01-07T14:43:39;14.57;;;13.07;;
7193;SDS011;3638;48.820;9.244;2024-01-07T14:46:07;13.80;;;12.40;;
7193;SDS011;3638;48.820;9.244;2024-01-07T14:48:35;14.60;;;13.00;;
7193;SDS011;3638;48.820;9.244;2024-01-07T14:51:02;13.57;;;12.17;;
7193;SDS011;3638;48.820;9.244;2024-01-07T14:53:30;15.53;;;13.33;;
7193;SDS011;3638;48.820;9.244;2024-01-07T14:55:58;14.10;;;12.53;;
7193;SDS011;3638;48.820;9.244;2024-01-07T14:58:27;13.43;;;12.00;;
7193;SDS011;3638;48.820;9.244;2024-01-07T15:00:54;13.87;;;12.27;;
7193;SDS011;3638;48.820;9.244;2024-01-07T15:03:23;14.40;;;11.57;;